sensor_id;sensor_type;location;lat;lon;timestamp;P1;durP1;ratioP1;P2;durP2;ratioP2
23728;SDS011;12045;60.214;24.724;2024-01-27T00:02:30;2.63;;;1.40;;
23728;SDS011;12045;60.214;24.724;2024-01-27T00:04:57;2.00;;;1.40;;
23728;SDS011;12045;60.214;24.724;2024-01-27T00:07:27;1.47;;;1.37;;
23728;SDS011;12045;60.214;24.724;2024-01-27T00:09:55;1.90;;;1.67;;
23728;SDS011;12045;60.214;24.724;2024-01-27T00:12:22;3.23;;;1.50;;
23728;SDS011;12045;60.214;24.724;2024-01-27T00:14:50;1.40;;;1.30;;
23728;SDS011;12045;60.214;24.724;2024-01-27T00:17:18;2.20;;;1.30;;
23728;SDS011;12045;60.214;24.724;2024-01-27T00:19:51;1.27;;;1.17;;
23728;SDS011;12045;60.214;24.724;2024-01-27T00:22:20;1.43;;;1.33;;
23728;SDS011;12045;60.214;24.724;2024-01-27T00:24:48;2.33;;;1.30;;
23728;SDS011;12045;60.214;24.724;2024-01-27T00:27:16;2.40;;;1.33;;
23728;SDS011;12045;60.214;24.724;2024-01-27T00:29:45;2.00;;;1.30;;
23728;SDS011;12045;60.214;24.724;2024-01-27T00:32:14;4.77;;;1.30;;
23728;SDS011;12045;60.214;24.724;2024-01-27T00:34:42;1.73;;;1.17;;
23728;SDS011;12045;60.214;24.724;2024-01-27T00:37:10;2.00;;;1.00;;
23728;SDS011;12045;60.214;24.724;2024-01-27T00:39:39;1.70;;;1.50;;
23728;SDS011;12045;60.214;24.724;2024-01-27T00:42:07;1.30;;;1.20;;
23728;SDS011;12045;60.214;24.724;2024-01-27T00:44:36;1.33;;;1.20;;
23728;SDS011;12045;60.214;24.724;2024-01-27T00:47:06;1.70;;;1.40;;
23728;SDS011;12045;60.214;24.724;2024-01-27T00:49:33;1.93;;;1.27;;
23728;SDS011;12045;60.214;24.724;2024-01-27T00:52:01;1.20;;;1.10;;
23728;SDS011;12045;60.214;24.724;2024-01-27T00:54:29;1.33;;;1.23;;
23728;SDS011;12045;60.214;24.724;2024-01-27T00:56:56;1.67;;;1.43;;
23728;SDS011;12045;60.214;24.724;2024-01-27T00:59:24;2.23;;;1.57;;
23728;SDS011;12045;60.214;24.724;2024-01-27T01:01:52;1.70;;;1.40;;
23728;SDS011;12045;60.214;24.724;2024-01-27T01:04:23;5.67;;;1.13;;
23728;SDS011;12045;60.214;24.724;2024-01-27T01:06:51;1.00;;;0.90;;
23728;SDS011;12045;60.214;24.724;2024-01-27T01:09:19;1.50;;;1.23;;
23728;SDS011;12045;60.214;24.724;2024-01-27T01:11:46;4.23;;;1.97;;
23728;SDS011;12045;60.214;24.724;2024-01-27T01:14:15;1.97;;;1.37;;
23728;SDS011;12045;60.214;24.724;2024-01-27T01:16:43;1.70;;;1.20;;
23728;SDS011;12045;60.214;24.724;2024-01-27T01:19:11;2.87;;;1.27;;
23728;SDS011;12045;60.214;24.724;2024-01-27T01:21:40;1.73;;;1.23;;
23728;SDS011;12045;60.214;24.724;2024-01-27T01:24:09;1.40;;;1.30;;
23728;SDS011;12045;60.214;24.724;2024-01-27T01:26:36;1.00;;;0.90;;
23728;SDS011;12045;60.214;24.724;2024-01-27T01:29:05;1.20;;;1.10;;
23728;SDS011;12045;60.214;24.724;2024-01-27T01:31:33;1.00;;;0.93;;
23728;SDS011;12045;60.214;24.724;2024-01-27T01:34:01;2.57;;;1.30;;
23728;SDS011;12045;60.214;24.724;2024-01-27T01:36:29;2.10;;;1.27;;
23728;SDS011;12045;60.214;24.724;2024-01-27T01:38:57;1.20;;;1.10;;
23728;SDS011;12045;60.214;24.724;2024-01-27T01:41:26;1.23;;;1.13;;
23728;SDS011;12045;60.214;24.724;2024-01-27T01:43:55;1.17;;;1.07;;
23728;SDS011;12045;60.214;24.724;2024-01-27T01:46:24;0.70;;;0.70;;
23728;SDS011;12045;60.214;24.724;2024-01-27T01:48:52;1.10;;;1.03;;
23728;SDS011;12045;60.214;24.724;2024-01-27T01:51:21;1.60;;;1.17;;
23728;SDS011;12045;60.214;24.724;2024-01-27T01:53:51;3.10;;;1.37;;
23728;SDS011;12045;60.214;24.724;2024-01-27T01:56:24;1.83;;;1.23;;
23728;SDS011;12045;60.214;24.724;2024-01-27T01:58:53;1.37;;;1.03;;
23728;SDS011;12045;60.214;24.724;2024-01-27T02:01:21;1.60;;;1.30;;
23728;SDS011;12045;60.214;24.724;2024-01-27T02:03:54;1.97;;;1.27;;
23728;SDS011;12045;60.214;24.724;2024-01-27T02:06:23;1.47;;;1.20;;
23728;SDS011;12045;60.214;24.724;2024-01-27T02:08:52;4.67;;;1.30;;
23728;SDS011;12045;60.214;24.724;2024-01-27T02:11:20;1.93;;;1.80;;
23728;SDS011;12045;60.214;24.724;2024-01-27T02:13:48;1.77;;;1.23;;
23728;SDS011;12045;60.214;24.724;2024-01-27T02:16:15;4.57;;;1.47;;
23728;SDS011;12045;60.214;24.724;2024-01-27T02:18:44;2.07;;;1.50;;
23728;SDS011;12045;60.214;24.724;2024-01-27T02:21:14;2.03;;;1.40;;
23728;SDS011;12045;60.214;24.724;2024-01-27T02:23:43;1.50;;;1.40;;
23728;SDS011;12045;60.214;24.724;2024-01-27T02:26:12;2.80;;;1.20;;
23728;SDS011;12045;60.214;24.724;2024-01-27T02:28:39;1.80;;;1.30;;
23728;SDS011;12045;60.214;24.724;2024-01-27T02:31:07;1.27;;;1.10;;
23728;SDS011;12045;60.214;24.724;2024-01-27T02:33:34;1.37;;;1.27;;
23728;SDS011;12045;60.214;24.724;2024-01-27T02:36:03;1.50;;;1.40;;
23728;SDS011;12045;60.214;24.724;2024-01-27T02:38:30;3.67;;;1.30;;
23728;SDS011;12045;60.214;24.724;2024-01-27T02:40:57;3.13;;;1.20;;
23728;SDS011;12045;60.214;24.724;2024-01-27T02:43:26;1.17;;;1.07;;
23728;SDS011;12045;60.214;24.724;2024-01-27T02:45:54;1.33;;;1.23;;
23728;SDS011;12045;60.214;24.724;2024-01-27T02:48:25;1.43;;;1.17;;
23728;SDS011;12045;60.214;24.724;2024-01-27T02:50:53;1.43;;;1.20;;
23728;SDS011;12045;60.214;24.724;2024-01-27T02:53:22;1.07;;;1.00;;
23728;SDS011;12045;60.214;24.724;2024-01-27T02:55:49;2.57;;;1.20;;
23728;SDS011;12045;60.214;24.724;2024-01-27T02:58:19;1.67;;;1.27;;
23728;SDS011;12045;60.214;24.724;2024-01-27T03:00:48;3.27;;;1.50;;
23728;SDS011;12045;60.214;24.724;2024-01-27T03:03:15;1.47;;;1.20;;
23728;SDS011;12045;60.214;24.724;2024-01-27T03:05:44;1.80;;;1.10;;
23728;SDS011;12045;60.214;24.724;2024-01-27T03:08:12;2.50;;;1.40;;
23728;SDS011;12045;60.214;24.724;2024-01-27T03:10:39;1.97;;;1.33;;
23728;SDS011;12045;60.214;24.724;2024-01-27T03:13:09;2.83;;;1.50;;
23728;SDS011;12045;60.214;24.724;2024-01-27T03:15:37;1.50;;;1.10;;
23728;SDS011;12045;60.214;24.724;2024-01-27T03:18:06;2.00;;;1.50;;
23728;SDS011;12045;60.214;24.724;2024-01-27T03:20:35;1.73;;;1.33;;
23728;SDS011;12045;60.214;24.724;2024-01-27T03:23:04;2.77;;;1.27;;
23728;SDS011;12045;60.214;24.724;2024-01-27T03:25:31;2.67;;;1.60;;
23728;SDS011;12045;60.214;24.724;2024-01-27T03:27:59;2.43;;;1.50;;
23728;SDS011;12045;60.214;24.724;2024-01-27T03:30:27;2.20;;;1.47;;
23728;SDS011;12045;60.214;24.724;2024-01-27T03:32:55;2.53;;;1.57;;
23728;SDS011;12045;60.214;24.724;2024-01-27T03:35:22;2.63;;;1.60;;
23728;SDS011;12045;60.214;24.724;2024-01-27T03:37:50;4.27;;;1.47;;
23728;SDS011;12045;60.214;24.724;2024-01-27T03:40:18;1.17;;;1.07;;
23728;SDS011;12045;60.214;24.724;2024-01-27T03:42:46;3.50;;;2.10;;
23728;SDS011;12045;60.214;24.724;2024-01-27T03:45:14;2.40;;;1.60;;
23728;SDS011;12045;60.214;24.724;2024-01-27T03:47:43;6.73;;;1.50;;
23728;SDS011;12045;60.214;24.724;2024-01-27T03:50:14;2.67;;;1.60;;
23728;SDS011;12045;60.214;24.724;2024-01-27T03:52:43;1.97;;;1.50;;
23728;SDS011;12045;60.214;24.724;2024-01-27T03:55:11;4.13;;;1.40;;
23728;SDS011;12045;60.214;24.724;2024-01-27T03:57:39;3.10;;;1.87;;
23728;SDS011;12045;60.214;24.724;2024-01-27T04:00:07;5.33;;;1.37;;
23728;SDS011;12045;60.214;24.724;2024-01-27T04:02:37;1.97;;;1.10;;
23728;SDS011;12045;60.214;24.724;2024-01-27T04:05:06;1.60;;;1.40;;
23728;SDS011;12045;60.214;24.724;2024-01-27T04:07:35;2.30;;;1.50;;
23728;SDS011;12045;60.214;24.724;2024-01-27T04:10:04;2.90;;;1.60;;
23728;SDS011;12045;60.214;24.724;2024-01-27T04:12:31;2.50;;;1.60;;
23728;SDS011;12045;60.214;24.724;2024-01-27T04:14:59;4.40;;;1.33;;
23728;SDS011;12045;60.214;24.724;2024-01-27T04:17:29;2.17;;;1.50;;
23728;SDS011;12045;60.214;24.724;2024-01-27T04:19:56;2.77;;;1.37;;
23728;SDS011;12045;60.214;24.724;2024-01-27T04:22:26;2.00;;;1.70;;
23728;SDS011;12045;60.214;24.724;2024-01-27T04:24:53;5.10;;;1.63;;
23728;SDS011;12045;60.214;24.724;2024-01-27T04:27:22;3.27;;;1.40;;
23728;SDS011;12045;60.214;24.724;2024-01-27T04:29:50;1.70;;;1.30;;
23728;SDS011;12045;60.214;24.724;2024-01-27T04:32:18;4.37;;;1.70;;
23728;SDS011;12045;60.214;24.724;2024-01-27T04:34:46;2.30;;;1.67;;
23728;SDS011;12045;60.214;24.724;2024-01-27T04:37:15;2.37;;;1.40;;
23728;SDS011;12045;60.214;24.724;2024-01-27T04:39:42;1.90;;;1.60;;
23728;SDS011;12045;60.214;24.724;2024-01-27T04:42:11;3.63;;;1.80;;
23728;SDS011;12045;60.214;24.724;2024-01-27T04:44:40;1.67;;;1.50;;
23728;SDS011;12045;60.214;24.724;2024-01-27T04:47:09;1.70;;;1.40;;
23728;SDS011;12045;60.214;24.724;2024-01-27T04:49:37;5.30;;;1.80;;
23728;SDS011;12045;60.214;24.724;2024-01-27T04:52:06;1.93;;;1.30;;
23728;SDS011;12045;60.214;24.724;2024-01-27T04:54:33;2.00;;;1.70;;
23728;SDS011;12045;60.214;24.724;2024-01-27T04:57:02;2.20;;;1.43;;
23728;SDS011;12045;60.214;24.724;2024-01-27T04:59:30;1.37;;;1.10;;
23728;SDS011;12045;60.214;24.724;2024-01-27T05:01:59;2.33;;;1.37;;
23728;SDS011;12045;60.214;24.724;2024-01-27T05:04:29;2.17;;;1.67;;
23728;SDS011;12045;60.214;24.724;2024-01-27T05:06:57;3.20;;;1.60;;
23728;SDS011;12045;60.214;24.724;2024-01-27T05:09:25;1.93;;;1.33;;
23728;SDS011;12045;60.214;24.724;2024-01-27T05:11:54;2.13;;;1.33;;
23728;SDS011;12045;60.214;24.724;2024-01-27T05:14:22;1.97;;;1.27;;
23728;SDS011;12045;60.214;24.724;2024-01-27T05:16:52;2.00;;;1.40;;
23728;SDS011;12045;60.214;24.724;2024-01-27T05:19:21;1.40;;;1.30;;
23728;SDS011;12045;60.214;24.724;2024-01-27T05:21:49;3.77;;;1.50;;
23728;SDS011;12045;60.214;24.724;2024-01-27T05:24:16;3.13;;;1.37;;
23728;SDS011;12045;60.214;24.724;2024-01-27T05:26:44;2.30;;;1.50;;
23728;SDS011;12045;60.214;24.724;2024-01-27T05:29:11;2.23;;;1.60;;
23728;SDS011;12045;60.214;24.724;2024-01-27T05:31:38;3.33;;;1.60;;
23728;SDS011;12045;60.214;24.724;2024-01-27T05:34:06;1.63;;;1.20;;
23728;SDS011;12045;60.214;24.724;2024-01-27T05:36:34;2.30;;;1.60;;
23728;SDS011;12045;60.214;24.724;2024-01-27T05:39:03;1.73;;;1.40;;
23728;SDS011;12045;60.214;24.724;2024-01-27T05:41:31;1.87;;;1.43;;
23728;SDS011;12045;60.214;24.724;2024-01-27T05:43:59;1.30;;;1.00;;
23728;SDS011;12045;60.214;24.724;2024-01-27T05:46:26;2.43;;;1.53;;
23728;SDS011;12045;60.214;24.724;2024-01-27T05:48:55;3.77;;;1.50;;
23728;SDS011;12045;60.214;24.724;2024-01-27T05:51:29;1.30;;;1.20;;
23728;SDS011;12045;60.214;24.724;2024-01-27T05:54:01;1.50;;;1.40;;
23728;SDS011;12045;60.214;24.724;2024-01-27T05:56:31;1.50;;;1.27;;
23728;SDS011;12045;60.214;24.724;2024-01-27T05:58:58;3.80;;;1.60;;
23728;SDS011;12045;60.214;24.724;2024-01-27T06:01:27;5.97;;;1.80;;
23728;SDS011;12045;60.214;24.724;2024-01-27T06:03:56;6.27;;;1.67;;
23728;SDS011;12045;60.214;24.724;2024-01-27T06:06:24;3.00;;;1.60;;
23728;SDS011;12045;60.214;24.724;2024-01-27T06:08:53;2.53;;;1.60;;
23728;SDS011;12045;60.214;24.724;2024-01-27T06:11:26;2.47;;;1.53;;
23728;SDS011;12045;60.214;24.724;2024-01-27T06:13:54;1.87;;;1.27;;
23728;SDS011;12045;60.214;24.724;2024-01-27T06:16:23;1.57;;;1.30;;
23728;SDS011;12045;60.214;24.724;2024-01-27T06:18:52;2.40;;;1.43;;
23728;SDS011;12045;60.214;24.724;2024-01-27T06:21:21;3.13;;;1.83;;
23728;SDS011;12045;60.214;24.724;2024-01-27T06:23:50;3.00;;;2.10;;
23728;SDS011;12045;60.214;24.724;2024-01-27T06:26:18;3.17;;;1.87;;
23728;SDS011;12045;60.214;24.724;2024-01-27T06:28:51;1.80;;;1.13;;
23728;SDS011;12045;60.214;24.724;2024-01-27T06:31:20;3.93;;;1.63;;
23728;SDS011;12045;60.214;24.724;2024-01-27T06:33:49;4.83;;;2.20;;
23728;SDS011;12045;60.214;24.724;2024-01-27T06:36:16;3.03;;;1.60;;
23728;SDS011;12045;60.214;24.724;2024-01-27T06:38:46;2.63;;;1.63;;
23728;SDS011;12045;60.214;24.724;2024-01-27T06:41:13;2.17;;;1.57;;
23728;SDS011;12045;60.214;24.724;2024-01-27T06:43:41;2.53;;;1.67;;
23728;SDS011;12045;60.214;24.724;2024-01-27T06:46:10;3.57;;;2.00;;
23728;SDS011;12045;60.214;24.724;2024-01-27T06:48:37;2.20;;;1.80;;
23728;SDS011;12045;60.214;24.724;2024-01-27T06:51:06;5.30;;;1.73;;
23728;SDS011;12045;60.214;24.724;2024-01-27T06:53:33;3.07;;;2.23;;
23728;SDS011;12045;60.214;24.724;2024-01-27T06:56:01;4.53;;;1.87;;
23728;SDS011;12045;60.214;24.724;2024-01-27T06:58:29;2.97;;;1.33;;
23728;SDS011;12045;60.214;24.724;2024-01-27T07:00:56;2.70;;;1.63;;
23728;SDS011;12045;60.214;24.724;2024-01-27T07:03:24;6.53;;;2.30;;
23728;SDS011;12045;60.214;24.724;2024-01-27T07:05:52;3.00;;;1.77;;
23728;SDS011;12045;60.214;24.724;2024-01-27T07:08:21;2.27;;;1.57;;
23728;SDS011;12045;60.214;24.724;2024-01-27T07:10:49;2.60;;;1.50;;
23728;SDS011;12045;60.214;24.724;2024-01-27T07:13:17;2.33;;;1.70;;
23728;SDS011;12045;60.214;24.724;2024-01-27T07:15:45;4.60;;;1.90;;
23728;SDS011;12045;60.214;24.724;2024-01-27T07:18:15;3.17;;;1.90;;
23728;SDS011;12045;60.214;24.724;2024-01-27T07:20:44;4.07;;;1.87;;
23728;SDS011;12045;60.214;24.724;2024-01-27T07:23:15;3.80;;;2.07;;
23728;SDS011;12045;60.214;24.724;2024-01-27T07:25:43;3.43;;;1.90;;
23728;SDS011;12045;60.214;24.724;2024-01-27T07:28:11;2.83;;;2.07;;
23728;SDS011;12045;60.214;24.724;2024-01-27T07:30:39;2.37;;;1.73;;
23728;SDS011;12045;60.214;24.724;2024-01-27T07:33:07;2.37;;;1.77;;
23728;SDS011;12045;60.214;24.724;2024-01-27T07:35:34;5.03;;;1.50;;
23728;SDS011;12045;60.214;24.724;2024-01-27T07:38:03;5.17;;;2.10;;
23728;SDS011;12045;60.214;24.724;2024-01-27T07:40:32;3.53;;;1.93;;
23728;SDS011;12045;60.214;24.724;2024-01-27T07:42:59;4.50;;;1.90;;
23728;SDS011;12045;60.214;24.724;2024-01-27T07:45:28;5.03;;;2.60;;
23728;SDS011;12045;60.214;24.724;2024-01-27T07:47:56;3.37;;;2.50;;
23728;SDS011;12045;60.214;24.724;2024-01-27T07:50:27;3.67;;;2.37;;
23728;SDS011;12045;60.214;24.724;2024-01-27T07:52:56;4.20;;;1.97;;
23728;SDS011;12045;60.214;24.724;2024-01-27T07:55:24;3.47;;;2.20;;
23728;SDS011;12045;60.214;24.724;2024-01-27T07:57:52;4.47;;;2.10;;
23728;SDS011;12045;60.214;24.724;2024-01-27T08:00:22;6.03;;;2.73;;
23728;SDS011;12045;60.214;24.724;2024-01-27T08:02:50;2.80;;;2.00;;
23728;SDS011;12045;60.214;24.724;2024-01-27T08:05:19;3.17;;;1.80;;
23728;SDS011;12045;60.214;24.724;2024-01-27T08:07:48;3.70;;;2.13;;
23728;SDS011;12045;60.214;24.724;2024-01-27T08:10:16;4.10;;;2.57;;
23728;SDS011;12045;60.214;24.724;2024-01-27T08:12:44;3.27;;;2.13;;
23728;SDS011;12045;60.214;24.724;2024-01-27T08:15:13;3.23;;;2.30;;
23728;SDS011;12045;60.214;24.724;2024-01-27T08:17:40;4.40;;;2.40;;
23728;SDS011;12045;60.214;24.724;2024-01-27T08:20:08;5.70;;;2.33;;
23728;SDS011;12045;60.214;24.724;2024-01-27T08:22:37;3.40;;;2.23;;
23728;SDS011;12045;60.214;24.724;2024-01-27T08:25:08;2.70;;;1.90;;
23728;SDS011;12045;60.214;24.724;2024-01-27T08:27:35;3.27;;;2.10;;
23728;SDS011;12045;60.214;24.724;2024-01-27T08:30:04;2.90;;;2.10;;
23728;SDS011;12045;60.214;24.724;2024-01-27T08:32:36;3.27;;;2.20;;
23728;SDS011;12045;60.214;24.724;2024-01-27T08:35:04;4.83;;;2.37;;
23728;SDS011;12045;60.214;24.724;2024-01-27T08:37:36;2.57;;;2.10;;
23728;SDS011;12045;60.214;24.724;2024-01-27T08:40:06;2.73;;;1.90;;
23728;SDS011;12045;60.214;24.724;2024-01-27T08:42:34;3.20;;;2.20;;
23728;SDS011;12045;60.214;24.724;2024-01-27T08:45:04;4.53;;;2.10;;
23728;SDS011;12045;60.214;24.724;2024-01-27T08:47:33;3.93;;;2.10;;
23728;SDS011;12045;60.214;24.724;2024-01-27T08:50:00;5.80;;;1.90;;
23728;SDS011;12045;60.214;24.724;2024-01-27T08:52:28;3.00;;;1.90;;
23728;SDS011;12045;60.214;24.724;2024-01-27T08:54:57;3.93;;;2.17;;
23728;SDS011;12045;60.214;24.724;2024-01-27T08:57:27;3.07;;;2.13;;
23728;SDS011;12045;60.214;24.724;2024-01-27T08:59:56;3.80;;;2.30;;
23728;SDS011;12045;60.214;24.724;2024-01-27T09:02:23;3.57;;;1.90;;
23728;SDS011;12045;60.214;24.724;2024-01-27T09:04:56;3.23;;;2.17;;
23728;SDS011;12045;60.214;24.724;2024-01-27T09:07:24;3.30;;;1.87;;
23728;SDS011;12045;60.214;24.724;2024-01-27T09:09:52;4.33;;;1.93;;
23728;SDS011;12045;60.214;24.724;2024-01-27T09:12:19;4.30;;;2.23;;
23728;SDS011;12045;60.214;24.724;2024-01-27T09:14:48;2.63;;;1.97;;
23728;SDS011;12045;60.214;24.724;2024-01-27T09:17:16;3.90;;;2.03;;
23728;SDS011;12045;60.214;24.724;2024-01-27T09:19:45;3.43;;;1.87;;
23728;SDS011;12045;60.214;24.724;2024-01-27T09:22:37;5.57;;;2.37;;
23728;SDS011;12045;60.214;24.724;2024-01-27T09:25:07;5.47;;;2.33;;
23728;SDS011;12045;60.214;24.724;2024-01-27T09:27:36;2.87;;;1.67;;
23728;SDS011;12045;60.214;24.724;2024-01-27T09:30:05;3.37;;;2.00;;
23728;SDS011;12045;60.214;24.724;2024-01-27T09:32:35;4.23;;;2.00;;
23728;SDS011;12045;60.214;24.724;2024-01-27T09:35:06;3.27;;;1.70;;
23728;SDS011;12045;60.214;24.724;2024-01-27T09:37:34;2.23;;;1.20;;
23728;SDS011;12045;60.214;24.724;2024-01-27T09:40:05;2.93;;;1.87;;
23728;SDS011;12045;60.214;24.724;2024-01-27T09:42:33;2.30;;;1.60;;
23728;SDS011;12045;60.214;24.724;2024-01-27T09:45:02;1.17;;;1.00;;
23728;SDS011;12045;60.214;24.724;2024-01-27T09:47:30;2.87;;;1.73;;
23728;SDS011;12045;60.214;24.724;2024-01-27T09:49:58;2.80;;;1.67;;
23728;SDS011;12045;60.214;24.724;2024-01-27T09:52:27;3.17;;;1.13;;
23728;SDS011;12045;60.214;24.724;2024-01-27T09:54:55;3.53;;;1.70;;
23728;SDS011;12045;60.214;24.724;2024-01-27T09:57:24;2.70;;;1.80;;
23728;SDS011;12045;60.214;24.724;2024-01-27T09:59:51;2.03;;;1.70;;
23728;SDS011;12045;60.214;24.724;2024-01-27T10:02:20;2.20;;;1.50;;
23728;SDS011;12045;60.214;24.724;2024-01-27T10:04:49;3.27;;;1.70;;
23728;SDS011;12045;60.214;24.724;2024-01-27T10:07:18;3.27;;;2.00;;
23728;SDS011;12045;60.214;24.724;2024-01-27T10:09:49;4.07;;;1.83;;
23728;SDS011;12045;60.214;24.724;2024-01-27T10:12:17;2.57;;;1.40;;
23728;SDS011;12045;60.214;24.724;2024-01-27T10:14:48;3.17;;;1.57;;
23728;SDS011;12045;60.214;24.724;2024-01-27T10:17:21;2.10;;;1.33;;
23728;SDS011;12045;60.214;24.724;2024-01-27T10:20:01;1.70;;;0.93;;
23728;SDS011;12045;60.214;24.724;2024-01-27T10:22:38;2.50;;;1.70;;
23728;SDS011;12045;60.214;24.724;2024-01-27T10:25:08;1.43;;;1.10;;
23728;SDS011;12045;60.214;24.724;2024-01-27T10:27:38;3.23;;;1.43;;
23728;SDS011;12045;60.214;24.724;2024-01-27T10:30:07;1.90;;;1.43;;
23728;SDS011;12045;60.214;24.724;2024-01-27T10:32:54;1.70;;;1.20;;
23728;SDS011;12045;60.214;24.724;2024-01-27T10:35:25;1.90;;;1.70;;
23728;SDS011;12045;60.214;24.724;2024-01-27T10:37:55;3.20;;;1.37;;
23728;SDS011;12045;60.214;24.724;2024-01-27T10:40:25;1.73;;;1.30;;
23728;SDS011;12045;60.214;24.724;2024-01-27T10:43:01;0.87;;;0.83;;
23728;SDS011;12045;60.214;24.724;2024-01-27T10:48:19;1.13;;;0.90;;
23728;SDS011;12045;60.214;24.724;2024-01-27T10:50:47;1.90;;;1.13;;
23728;SDS011;12045;60.214;24.724;2024-01-27T10:53:26;1.63;;;1.10;;
23728;SDS011;12045;60.214;24.724;2024-01-27T10:55:58;1.40;;;1.13;;
23728;SDS011;12045;60.214;24.724;2024-01-27T10:58:28;1.73;;;1.37;;
23728;SDS011;12045;60.214;24.724;2024-01-27T11:00:58;1.13;;;1.00;;
23728;SDS011;12045;60.214;24.724;2024-01-27T11:03:28;2.47;;;1.20;;
23728;SDS011;12045;60.214;24.724;2024-01-27T11:05:57;7.33;;;1.60;;
23728;SDS011;12045;60.214;24.724;2024-01-27T11:08:27;4.07;;;1.40;;
23728;SDS011;12045;60.214;24.724;2024-01-27T11:10:57;2.00;;;1.37;;
23728;SDS011;12045;60.214;24.724;2024-01-27T11:13:30;3.97;;;1.30;;
23728;SDS011;12045;60.214;24.724;2024-01-27T11:16:03;1.63;;;1.17;;
23728;SDS011;12045;60.214;24.724;2024-01-27T11:18:33;2.00;;;1.17;;
23728;SDS011;12045;60.214;24.724;2024-01-27T11:21:06;2.63;;;1.50;;
23728;SDS011;12045;60.214;24.724;2024-01-27T11:23:34;1.37;;;1.17;;
23728;SDS011;12045;60.214;24.724;2024-01-27T11:26:08;1.17;;;0.83;;
23728;SDS011;12045;60.214;24.724;2024-01-27T11:28:37;2.43;;;1.90;;
23728;SDS011;12045;60.214;24.724;2024-01-27T11:31:06;1.83;;;1.30;;
23728;SDS011;12045;60.214;24.724;2024-01-27T11:33:43;1.47;;;1.00;;
23728;SDS011;12045;60.214;24.724;2024-01-27T11:36:23;2.80;;;1.00;;
23728;SDS011;12045;60.214;24.724;2024-01-27T11:38:52;2.90;;;1.93;;
23728;SDS011;12045;60.214;24.724;2024-01-27T11:41:25;1.87;;;1.50;;
23728;SDS011;12045;60.214;24.724;2024-01-27T11:43:55;0.90;;;0.87;;
23728;SDS011;12045;60.214;24.724;2024-01-27T11:46:26;2.27;;;1.60;;
23728;SDS011;12045;60.214;24.724;2024-01-27T11:48:55;1.97;;;1.23;;
23728;SDS011;12045;60.214;24.724;2024-01-27T11:51:25;2.07;;;1.40;;
23728;SDS011;12045;60.214;24.724;2024-01-27T11:53:56;1.67;;;1.13;;
23728;SDS011;12045;60.214;24.724;2024-01-27T11:56:25;0.70;;;0.70;;
23728;SDS011;12045;60.214;24.724;2024-01-27T11:58:55;2.03;;;1.43;;
23728;SDS011;12045;60.214;24.724;2024-01-27T12:01:25;2.30;;;1.47;;
23728;SDS011;12045;60.214;24.724;2024-01-27T12:03:52;3.47;;;1.80;;
23728;SDS011;12045;60.214;24.724;2024-01-27T12:06:22;3.53;;;1.70;;
23728;SDS011;12045;60.214;24.724;2024-01-27T12:08:53;2.60;;;1.90;;
23728;SDS011;12045;60.214;24.724;2024-01-27T12:11:24;2.50;;;1.10;;
23728;SDS011;12045;60.214;24.724;2024-01-27T12:13:53;5.50;;;2.10;;
23728;SDS011;12045;60.214;24.724;2024-01-27T12:16:22;1.97;;;1.40;;
23728;SDS011;12045;60.214;24.724;2024-01-27T12:18:52;1.70;;;1.10;;
23728;SDS011;12045;60.214;24.724;2024-01-27T12:21:25;3.90;;;1.53;;
23728;SDS011;12045;60.214;24.724;2024-01-27T12:23:57;4.30;;;2.07;;
23728;SDS011;12045;60.214;24.724;2024-01-27T12:26:28;4.57;;;2.00;;
23728;SDS011;12045;60.214;24.724;2024-01-27T12:28:57;2.30;;;1.43;;
23728;SDS011;12045;60.214;24.724;2024-01-27T12:31:28;5.13;;;2.30;;
23728;SDS011;12045;60.214;24.724;2024-01-27T12:33:57;2.70;;;1.60;;
23728;SDS011;12045;60.214;24.724;2024-01-27T12:36:26;5.13;;;2.17;;
23728;SDS011;12045;60.214;24.724;2024-01-27T12:38:59;3.43;;;2.20;;
23728;SDS011;12045;60.214;24.724;2024-01-27T12:41:28;3.83;;;1.93;;
23728;SDS011;12045;60.214;24.724;2024-01-27T12:43:56;4.53;;;2.57;;
23728;SDS011;12045;60.214;24.724;2024-01-27T12:46:26;4.27;;;2.73;;
23728;SDS011;12045;60.214;24.724;2024-01-27T12:48:57;3.40;;;1.80;;
23728;SDS011;12045;60.214;24.724;2024-01-27T12:51:32;4.03;;;1.77;;
23728;SDS011;12045;60.214;24.724;2024-01-27T12:54:00;10.10;;;2.23;;
23728;SDS011;12045;60.214;24.724;2024-01-27T12:56:32;5.37;;;2.37;;
23728;SDS011;12045;60.214;24.724;2024-01-27T12:59:02;5.73;;;2.47;;
23728;SDS011;12045;60.214;24.724;2024-01-27T13:01:33;3.87;;;1.87;;
23728;SDS011;12045;60.214;24.724;2024-01-27T13:04:01;4.73;;;2.30;;
23728;SDS011;12045;60.214;24.724;2024-01-27T13:06:29;3.50;;;2.50;;
23728;SDS011;12045;60.214;24.724;2024-01-27T13:08:57;4.10;;;2.20;;
23728;SDS011;12045;60.214;24.724;2024-01-27T13:11:26;4.13;;;2.23;;
23728;SDS011;12045;60.214;24.724;2024-01-27T13:13:55;3.37;;;2.00;;
23728;SDS011;12045;60.214;24.724;2024-01-27T13:16:27;4.80;;;2.37;;
23728;SDS011;12045;60.214;24.724;2024-01-27T13:18:55;4.10;;;2.03;;
23728;SDS011;12045;60.214;24.724;2024-01-27T13:21:24;5.03;;;2.50;;
23728;SDS011;12045;60.214;24.724;2024-01-27T13:23:51;4.47;;;2.23;;
23728;SDS011;12045;60.214;24.724;2024-01-27T13:26:22;4.07;;;2.50;;
23728;SDS011;12045;60.214;24.724;2024-01-27T13:28:53;4.17;;;2.47;;
23728;SDS011;12045;60.214;24.724;2024-01-27T13:31:24;4.40;;;2.43;;
23728;SDS011;12045;60.214;24.724;2024-01-27T13:33:52;5.10;;;2.43;;
23728;SDS011;12045;60.214;24.724;2024-01-27T13:36:24;6.33;;;2.90;;
23728;SDS011;12045;60.214;24.724;2024-01-27T13:38:54;5.30;;;2.80;;
23728;SDS011;12045;60.214;24.724;2024-01-27T13:41:23;5.80;;;3.13;;
23728;SDS011;12045;60.214;24.724;2024-01-27T13:43:53;3.63;;;2.43;;
23728;SDS011;12045;60.214;24.724;2024-01-27T13:46:21;3.67;;;1.83;;
23728;SDS011;12045;60.214;24.724;2024-01-27T13:48:52;4.47;;;2.73;;
23728;SDS011;12045;60.214;24.724;2024-01-27T13:51:22;3.47;;;2.20;;
23728;SDS011;12045;60.214;24.724;2024-01-27T13:53:51;7.13;;;3.00;;
23728;SDS011;12045;60.214;24.724;2024-01-27T13:56:18;3.37;;;2.10;;
23728;SDS011;12045;60.214;24.724;2024-01-27T13:58:48;5.67;;;2.77;;
23728;SDS011;12045;60.214;24.724;2024-01-27T14:01:16;4.67;;;2.53;;
23728;SDS011;12045;60.214;24.724;2024-01-27T14:03:43;6.57;;;2.90;;
23728;SDS011;12045;60.214;24.724;2024-01-27T14:06:12;5.10;;;2.83;;
23728;SDS011;12045;60.214;24.724;2024-01-27T14:08:40;3.97;;;2.60;;
23728;SDS011;12045;60.214;24.724;2024-01-27T14:11:08;4.73;;;2.70;;
23728;SDS011;12045;60.214;24.724;2024-01-27T14:13:36;3.00;;;2.10;;
23728;SDS011;12045;60.214;24.724;2024-01-27T14:16:06;3.40;;;2.00;;
23728;SDS011;12045;60.214;24.724;2024-01-27T14:18:36;4.03;;;2.70;;
23728;SDS011;12045;60.214;24.724;2024-01-27T14:21:04;6.17;;;2.57;;
23728;SDS011;12045;60.214;24.724;2024-01-27T14:23:34;3.67;;;2.40;;
23728;SDS011;12045;60.214;24.724;2024-01-27T14:26:02;3.80;;;2.10;;
23728;SDS011;12045;60.214;24.724;2024-01-27T14:28:30;5.00;;;2.57;;
23728;SDS011;12045;60.214;24.724;2024-01-27T14:30:58;5.20;;;3.10;;
23728;SDS011;12045;60.214;24.724;2024-01-27T14:33:27;4.87;;;2.10;;
23728;SDS011;12045;60.214;24.724;2024-01-27T14:35:55;5.53;;;2.60;;
23728;SDS011;12045;60.214;24.724;2024-01-27T14:38:24;4.13;;;2.33;;
23728;SDS011;12045;60.214;24.724;2024-01-27T14:40:53;5.87;;;2.50;;
23728;SDS011;12045;60.214;24.724;2024-01-27T14:43:25;8.30;;;2.20;;
23728;SDS011;12045;60.214;24.724;2024-01-27T14:45:54;2.13;;;1.57;;
23728;SDS011;12045;60.214;24.724;2024-01-27T14:48:23;3.77;;;2.57;;